createdAt,value
2023-05-06T00:01:19.534Z,19.01
2023-05-06T00:03:46.694Z,18.98
2023-05-06T00:06:13.742Z,18.93
2023-05-06T00:08:40.590Z,18.90
2023-05-06T00:11:07.426Z,18.86
2023-05-06T00:13:34.244Z,18.84
2023-05-06T00:16:01.113Z,18.80
2023-05-06T00:18:27.976Z,18.77
2023-05-06T00:20:54.865Z,18.75
2023-05-06T00:23:21.785Z,18.73
2023-05-06T00:25:48.574Z,18.69
2023-05-06T00:28:15.422Z,18.66
2023-05-06T00:30:42.210Z,18.63
2023-05-06T00:33:09.018Z,18.59
2023-05-06T00:35:35.909Z,18.56
2023-05-06T00:38:15.336Z,18.49
2023-05-06T00:40:42.944Z,18.50
2023-05-06T00:43:09.942Z,18.48
2023-05-06T00:45:37.153Z,18.46
2023-05-06T00:48:06.644Z,18.41
2023-05-06T00:50:34.808Z,18.39
2023-05-06T00:53:04.305Z,18.38
2023-05-06T00:55:31.788Z,18.37
2023-05-06T00:57:59.023Z,18.36
2023-05-06T01:00:28.272Z,18.34
2023-05-06T01:02:55.253Z,18.32
2023-05-06T01:05:26.265Z,18.31
2023-05-06T01:08:10.537Z,18.26
2023-05-06T01:10:53.885Z,18.25
2023-05-06T01:13:30.559Z,18.25
2023-05-06T01:16:00.708Z,18.26
2023-05-06T01:18:32.557Z,18.25
2023-05-06T01:21:01.794Z,18.25
2023-05-06T01:23:29.047Z,18.25
2023-05-06T01:25:55.989Z,18.27
2023-05-06T01:28:22.842Z,18.26
2023-05-06T01:30:52.587Z,18.22
2023-05-06T01:33:25.919Z,18.13
2023-05-06T01:36:12.491Z,18.17
2023-05-06T01:38:59.841Z,18.16
2023-05-06T01:41:27.997Z,18.20
2023-05-06T01:43:56.725Z,18.19
2023-05-06T01:46:25.262Z,18.18
2023-05-06T01:48:55.185Z,18.18
2023-05-06T01:51:23.628Z,18.20
2023-05-06T01:53:50.540Z,18.20
2023-05-06T01:56:17.838Z,18.22
2023-05-06T01:58:44.641Z,18.21
2023-05-06T02:01:11.532Z,18.20
2023-05-06T02:03:40.365Z,18.19
2023-05-06T02:06:07.898Z,18.17
2023-05-06T02:08:39.048Z,18.04
2023-05-06T02:11:06.573Z,18.12
2023-05-06T02:13:33.617Z,18.10
2023-05-06T02:16:01.085Z,18.07
2023-05-06T02:18:28.611Z,18.06
2023-05-06T02:20:56.258Z,18.04
2023-05-06T02:23:23.047Z,18.02
2023-05-06T02:25:50.196Z,17.99
2023-05-06T02:28:17.055Z,17.97
2023-05-06T02:30:44.005Z,17.96
2023-05-06T02:33:11.014Z,17.93
2023-05-06T02:35:38.030Z,17.89
2023-05-06T02:38:04.845Z,17.84
2023-05-06T02:40:31.655Z,17.80
2023-05-06T02:42:58.828Z,17.75
2023-05-06T02:45:25.718Z,17.70
2023-05-06T02:47:53.002Z,17.66
2023-05-06T02:50:19.897Z,17.62
2023-05-06T02:52:46.766Z,17.59
2023-05-06T02:55:13.593Z,17.54
2023-05-06T02:57:40.472Z,17.51
2023-05-06T03:00:11.119Z,17.47
2023-05-06T03:02:38.006Z,17.43
2023-05-06T03:05:05.626Z,17.39
2023-05-06T03:07:32.782Z,17.34
2023-05-06T03:09:59.740Z,17.29
2023-05-06T03:12:26.767Z,17.26
2023-05-06T03:14:53.709Z,17.21
2023-05-06T03:17:21.639Z,17.18
2023-05-06T03:19:50.489Z,17.14
2023-05-06T03:22:17.870Z,17.11
2023-05-06T03:24:46.498Z,17.08
2023-05-06T03:27:13.680Z,17.03
2023-05-06T03:29:41.804Z,17.00
2023-05-06T03:32:10.641Z,16.96
2023-05-06T03:34:42.167Z,16.93
2023-05-06T03:37:12.782Z,16.90
2023-05-06T03:39:45.477Z,16.87
2023-05-06T03:42:12.574Z,16.86
2023-05-06T03:44:39.532Z,16.82
2023-05-06T03:47:07.081Z,16.77
2023-05-06T03:49:34.856Z,16.74
2023-05-06T03:52:05.711Z,16.66
2023-05-06T03:54:32.918Z,16.65
2023-05-06T03:57:03.356Z,16.59
2023-05-06T03:59:31.785Z,16.57
2023-05-06T04:02:00.150Z,16.52
2023-05-06T04:04:28.339Z,16.50
2023-05-06T04:06:56.353Z,16.46
2023-05-06T04:09:24.557Z,16.41
2023-05-06T04:11:52.648Z,16.36
2023-05-06T04:14:19.746Z,16.28
2023-05-06T04:16:46.926Z,16.20
2023-05-06T04:19:14.263Z,16.12
2023-05-06T04:21:41.108Z,16.05
2023-05-06T04:24:11.634Z,15.98
2023-05-06T04:26:39.871Z,15.94
2023-05-06T04:29:07.896Z,15.90
2023-05-06T04:31:40.612Z,15.85
2023-05-06T04:34:11.114Z,15.81
2023-05-06T04:36:40.067Z,15.76
2023-05-06T04:39:14.526Z,15.71
2023-05-06T04:41:41.786Z,15.67
2023-05-06T04:44:10.250Z,15.65
2023-05-06T04:46:37.280Z,15.64
2023-05-06T04:49:04.209Z,15.65
2023-05-06T04:51:31.807Z,15.65
2023-05-06T04:54:00.173Z,15.66
2023-05-06T04:56:27.678Z,15.68
2023-05-06T04:58:54.857Z,15.70
2023-05-06T05:01:22.262Z,15.72
2023-05-06T05:03:50.526Z,15.76
2023-05-06T05:06:20.129Z,15.80
2023-05-06T05:08:47.921Z,15.83
2023-05-06T05:11:15.496Z,15.86
2023-05-06T05:13:43.161Z,15.91
2023-05-06T05:16:10.032Z,15.97
2023-05-06T05:18:40.693Z,16.03
2023-05-06T05:21:16.021Z,16.07
2023-05-06T05:23:43.019Z,16.14
2023-05-06T05:26:10.370Z,16.21
2023-05-06T05:28:38.425Z,16.28
2023-05-06T05:31:06.334Z,16.33
2023-05-06T05:33:36.270Z,16.41
2023-05-06T05:36:06.515Z,16.49
2023-05-06T05:38:34.373Z,16.57
2023-05-06T05:41:04.402Z,16.65
2023-05-06T05:43:31.439Z,16.74
2023-05-06T05:46:00.354Z,16.84
2023-05-06T05:48:27.417Z,16.92
2023-05-06T05:50:55.091Z,17.02
2023-05-06T05:53:24.184Z,17.12
2023-05-06T05:55:51.274Z,17.24
2023-05-06T05:58:18.962Z,17.33
2023-05-06T06:00:45.930Z,17.44
2023-05-06T06:03:18.238Z,17.44
2023-05-06T06:05:45.496Z,17.62
2023-05-06T06:08:13.296Z,17.69
2023-05-06T06:10:42.008Z,17.78
2023-05-06T06:13:14.720Z,17.87
2023-05-06T06:15:44.106Z,17.95
2023-05-06T06:18:11.668Z,18.03
2023-05-06T06:20:39.707Z,18.11
2023-05-06T06:23:11.360Z,18.19
2023-05-06T06:25:38.537Z,18.27
2023-05-06T06:28:08.025Z,18.36
2023-05-06T06:30:35.340Z,18.41
2023-05-06T06:33:02.493Z,18.48
2023-05-06T06:35:30.231Z,18.56
2023-05-06T06:38:04.677Z,18.66
2023-05-06T06:40:31.735Z,18.74
2023-05-06T06:42:59.031Z,18.80
2023-05-06T06:45:48.366Z,18.85
2023-05-06T06:48:16.502Z,18.96
2023-05-06T06:50:43.379Z,19.03
2023-05-06T06:53:12.787Z,19.11
2023-05-06T06:55:55.839Z,19.16
2023-05-06T06:58:23.119Z,19.32
2023-05-06T07:00:50.416Z,19.42
2023-05-06T07:03:19.317Z,19.51
2023-05-06T07:05:47.085Z,19.59
2023-05-06T07:08:17.471Z,19.70
2023-05-06T07:10:44.850Z,19.80
2023-05-06T07:13:12.131Z,19.93
2023-05-06T07:15:39.304Z,20.03
2023-05-06T07:18:06.517Z,20.13
2023-05-06T07:20:34.023Z,20.24
2023-05-06T07:23:01.132Z,20.35
2023-05-06T07:25:28.162Z,20.46
2023-05-06T07:27:55.116Z,20.56
2023-05-06T07:30:23.277Z,20.67
2023-05-06T07:32:51.457Z,20.75
2023-05-06T07:35:19.125Z,20.81
2023-05-06T07:37:46.953Z,20.85
2023-05-06T07:40:13.903Z,20.90
2023-05-06T07:42:43.003Z,20.92
2023-05-06T07:45:11.025Z,20.94
2023-05-06T07:47:38.472Z,20.96
2023-05-06T07:50:06.871Z,20.99
2023-05-06T07:52:34.583Z,21.04
2023-05-06T07:55:02.702Z,21.12
2023-05-06T07:57:30.001Z,21.19
2023-05-06T07:59:58.476Z,21.27
2023-05-06T08:02:25.525Z,21.37
2023-05-06T08:04:52.982Z,21.45
2023-05-06T08:07:19.994Z,21.50
2023-05-06T08:09:46.978Z,21.54
2023-05-06T08:12:15.702Z,21.56
2023-05-06T08:14:42.487Z,21.58
2023-05-06T08:17:09.268Z,21.63
2023-05-06T08:19:36.132Z,21.65
2023-05-06T08:22:02.963Z,21.68
2023-05-06T08:24:29.750Z,21.71
2023-05-06T08:26:56.550Z,21.73
2023-05-06T08:29:23.651Z,21.77
2023-05-06T08:31:50.678Z,21.82
2023-05-06T08:34:20.103Z,21.92
2023-05-06T08:36:48.430Z,21.98
2023-05-06T08:39:15.233Z,22.04
2023-05-06T08:41:48.337Z,22.06
2023-05-06T08:44:18.977Z,22.14
2023-05-06T08:46:50.036Z,22.20
2023-05-06T08:49:17.364Z,22.31
2023-05-06T08:51:44.834Z,22.39
2023-05-06T08:54:12.907Z,22.46
2023-05-06T08:56:45.813Z,22.52
2023-05-06T08:59:13.897Z,22.60
2023-05-06T09:01:41.562Z,22.64
2023-05-06T09:04:10.326Z,22.64
2023-05-06T09:06:37.357Z,22.67
2023-05-06T09:09:04.439Z,22.71
2023-05-06T09:11:31.743Z,22.75
2023-05-06T09:14:17.968Z,22.77
2023-05-06T09:16:49.324Z,22.90
2023-05-06T09:19:18.744Z,22.99
2023-05-06T09:21:48.256Z,23.04
2023-05-06T09:24:16.729Z,23.12
2023-05-06T09:26:46.092Z,23.20
2023-05-06T09:29:14.049Z,23.30
2023-05-06T09:31:43.773Z,23.40
2023-05-06T09:34:11.856Z,23.53
2023-05-06T09:36:39.126Z,23.65
2023-05-06T09:39:07.661Z,23.77
2023-05-06T09:41:36.164Z,23.88
2023-05-06T09:44:04.508Z,23.97
2023-05-06T09:46:32.131Z,24.06
2023-05-06T09:48:59.567Z,24.10
2023-05-06T09:51:30.836Z,24.12
2023-05-06T09:53:59.188Z,24.11
2023-05-06T09:56:26.367Z,24.15
2023-05-06T09:58:55.537Z,24.17
2023-05-06T10:01:35.418Z,24.22
2023-05-06T10:04:10.194Z,24.26
2023-05-06T10:06:40.962Z,24.36
2023-05-06T10:09:09.184Z,24.43
2023-05-06T10:11:36.772Z,24.52
2023-05-06T10:14:05.225Z,24.60
2023-05-06T10:16:36.081Z,24.69
2023-05-06T10:19:04.963Z,24.77
2023-05-06T10:21:36.365Z,24.85
2023-05-06T10:24:11.272Z,24.92
2023-05-06T10:26:39.268Z,25.05
2023-05-06T10:29:10.743Z,25.14
2023-05-06T10:31:57.456Z,25.17
2023-05-06T10:34:31.568Z,25.29
2023-05-06T10:37:00.172Z,25.39
2023-05-06T10:39:27.831Z,25.47
2023-05-06T10:41:55.105Z,25.54
2023-05-06T10:45:09.541Z,25.49
2023-05-06T10:48:03.714Z,25.57
2023-05-06T10:50:30.680Z,25.71
2023-05-06T10:52:59.160Z,25.77
2023-05-06T10:55:38.578Z,25.82
2023-05-06T10:58:11.781Z,25.96
2023-05-06T11:00:38.569Z,26.07
2023-05-06T11:03:10.676Z,26.17
2023-05-06T11:05:51.901Z,26.33
2023-05-06T11:08:24.736Z,26.55
2023-05-06T11:11:25.351Z,26.72
2023-05-06T11:13:53.413Z,26.94
2023-05-06T11:16:49.992Z,26.98
2023-05-06T11:19:23.400Z,27.09
2023-05-06T11:21:52.077Z,27.19
2023-05-06T11:24:29.667Z,27.24
2023-05-06T11:26:59.131Z,27.31
2023-05-06T11:29:27.005Z,27.33
2023-05-06T11:31:54.359Z,27.42
2023-05-06T11:34:30.302Z,27.45
2023-05-06T11:37:02.116Z,27.61
2023-05-06T11:39:39.970Z,27.78
2023-05-06T11:42:08.926Z,27.92
2023-05-06T11:44:38.146Z,28.02
2023-05-06T11:47:07.635Z,28.12
2023-05-06T11:49:42.120Z,28.16
2023-05-06T11:52:13.284Z,28.23
2023-05-06T11:54:42.298Z,28.30
2023-05-06T11:57:09.958Z,28.36
2023-05-06T11:59:39.603Z,28.41
2023-05-06T12:02:08.953Z,28.38
2023-05-06T12:04:50.179Z,28.49
2023-05-06T12:07:17.559Z,28.54
2023-05-06T12:09:47.957Z,28.52
2023-05-06T12:12:22.386Z,28.50
2023-05-06T12:14:50.630Z,28.55
2023-05-06T12:17:17.799Z,28.57
2023-05-06T12:19:46.612Z,28.57
2023-05-06T12:22:22.443Z,28.57
2023-05-06T12:24:50.428Z,28.65
2023-05-06T12:27:36.612Z,28.62
2023-05-06T12:30:04.806Z,28.73
2023-05-06T12:32:32.244Z,28.79
2023-05-06T12:35:00.707Z,28.84
2023-05-06T12:37:30.520Z,28.87
2023-05-06T12:39:59.324Z,28.90
2023-05-06T12:42:27.093Z,28.97
2023-05-06T12:44:54.464Z,29.04
2023-05-06T12:47:25.318Z,29.06
2023-05-06T12:50:00.861Z,29.13
2023-05-06T12:52:30.287Z,29.19
2023-05-06T12:54:57.687Z,29.22
2023-05-06T12:57:24.542Z,29.27
2023-05-06T12:59:51.369Z,29.31
2023-05-06T13:02:18.645Z,29.37
2023-05-06T13:04:46.866Z,29.44
2023-05-06T13:07:13.930Z,29.53
2023-05-06T13:09:40.843Z,29.62
2023-05-06T13:12:08.480Z,29.71
2023-05-06T13:14:36.923Z,29.83
2023-05-06T13:17:06.720Z,29.96
2023-05-06T13:19:33.920Z,30.07
2023-05-06T13:22:02.124Z,30.18
2023-05-06T13:24:29.757Z,30.29
2023-05-06T13:26:57.027Z,30.38
2023-05-06T13:29:24.512Z,30.47
2023-05-06T13:31:52.068Z,30.54
2023-05-06T13:34:19.291Z,30.57
2023-05-06T13:36:47.721Z,30.58
2023-05-06T13:39:18.671Z,30.55
2023-05-06T13:41:52.588Z,30.44
2023-05-06T13:44:21.241Z,30.39
2023-05-06T13:46:49.556Z,30.29
2023-05-06T13:49:19.061Z,30.20
2023-05-06T13:51:46.604Z,30.15
2023-05-06T13:54:16.620Z,30.10
2023-05-06T13:56:43.468Z,30.04
2023-05-06T13:59:11.855Z,29.98
2023-05-06T14:01:39.109Z,29.95
2023-05-06T14:04:06.442Z,29.96
2023-05-06T14:06:33.468Z,29.98
2023-05-06T14:09:04.728Z,29.97
2023-05-06T14:11:32.074Z,30.03
2023-05-06T14:14:02.809Z,30.10
2023-05-06T14:16:29.870Z,30.13
2023-05-06T14:18:56.713Z,30.16
2023-05-06T14:21:23.624Z,30.19
2023-05-06T14:23:50.642Z,30.20
2023-05-06T14:26:17.661Z,30.18
2023-05-06T14:28:44.512Z,30.23
2023-05-06T14:31:11.625Z,30.27
2023-05-06T14:33:38.866Z,30.28
2023-05-06T14:36:06.332Z,30.28
2023-05-06T14:38:33.135Z,30.28
2023-05-06T14:41:00.452Z,30.32
2023-05-06T14:43:30.045Z,30.35
2023-05-06T14:45:56.874Z,30.23
2023-05-06T14:48:25.467Z,30.38
2023-05-06T14:50:53.186Z,30.36
2023-05-06T14:53:20.118Z,30.35
2023-05-06T14:55:48.750Z,30.35
2023-05-06T14:58:15.648Z,30.30
2023-05-06T15:00:42.456Z,30.26
2023-05-06T15:03:09.609Z,30.19
2023-05-06T15:05:37.228Z,30.16
2023-05-06T15:08:11.456Z,30.12
2023-05-06T15:10:39.408Z,30.20
2023-05-06T15:13:07.010Z,30.25
2023-05-06T15:15:34.177Z,30.33
2023-05-06T15:18:07.373Z,30.36
2023-05-06T15:20:36.354Z,30.42
2023-05-06T15:23:03.283Z,30.45
2023-05-06T15:25:35.643Z,30.46
2023-05-06T15:28:05.127Z,30.50
2023-05-06T15:30:32.056Z,30.57
2023-05-06T15:32:59.025Z,30.61
2023-05-06T15:35:29.655Z,30.65
2023-05-06T15:38:00.451Z,30.70
2023-05-06T15:40:27.499Z,30.73
2023-05-06T15:42:54.893Z,30.71
2023-05-06T15:45:25.711Z,30.70
2023-05-06T15:47:54.442Z,30.66
2023-05-06T15:50:32.528Z,30.61
2023-05-06T15:53:01.695Z,30.57
2023-05-06T15:55:35.111Z,30.55
2023-05-06T15:58:08.601Z,30.38
2023-05-06T16:00:35.698Z,30.52
2023-05-06T16:03:02.790Z,30.54
2023-05-06T16:05:30.006Z,30.55
2023-05-06T16:07:56.921Z,30.57
2023-05-06T16:10:23.843Z,30.62
2023-05-06T16:12:50.985Z,30.66
2023-05-06T16:15:18.389Z,30.71
2023-05-06T16:17:45.601Z,30.75
2023-05-06T16:20:14.525Z,30.81
2023-05-06T16:22:41.865Z,30.83
2023-05-06T16:25:08.842Z,30.89
2023-05-06T16:27:35.669Z,30.93
2023-05-06T16:30:02.520Z,30.90
2023-05-06T16:32:29.449Z,30.80
2023-05-06T16:34:56.292Z,30.64
2023-05-06T16:37:23.159Z,30.51
2023-05-06T16:39:49.983Z,30.33
2023-05-06T16:42:16.814Z,30.15
2023-05-06T16:44:43.616Z,29.95
2023-05-06T16:47:10.560Z,29.75
2023-05-06T16:49:37.706Z,29.55
2023-05-06T16:52:05.357Z,29.34
2023-05-06T16:54:32.365Z,29.14
2023-05-06T16:57:00.404Z,28.89
2023-05-06T16:59:27.410Z,28.65
2023-05-06T17:01:57.358Z,28.40
2023-05-06T17:04:27.540Z,28.19
2023-05-06T17:06:57.559Z,27.99
2023-05-06T17:09:24.747Z,27.84
2023-05-06T17:11:51.565Z,27.71
2023-05-06T17:14:19.768Z,27.60
2023-05-06T17:16:47.232Z,27.50
2023-05-06T17:19:14.648Z,27.44
2023-05-06T17:21:41.658Z,27.37
2023-05-06T17:24:08.841Z,27.27
2023-05-06T17:26:35.939Z,27.21
2023-05-06T17:29:02.868Z,27.18
2023-05-06T17:31:29.757Z,27.14
2023-05-06T17:33:57.466Z,27.11
2023-05-06T17:36:24.305Z,27.12
2023-05-06T17:39:05.405Z,27.06
2023-05-06T17:41:33.398Z,27.12
2023-05-06T17:44:00.238Z,27.12
2023-05-06T17:46:27.281Z,27.11
2023-05-06T17:48:57.344Z,27.07
2023-05-06T17:51:30.951Z,27.03
2023-05-06T17:54:00.649Z,27.01
2023-05-06T17:56:27.575Z,26.97
2023-05-06T17:58:54.516Z,26.93
2023-05-06T18:01:21.397Z,26.87
2023-05-06T18:03:48.283Z,26.80
2023-05-06T18:06:19.265Z,26.71
2023-05-06T18:08:46.714Z,26.64
2023-05-06T18:11:14.592Z,26.57
2023-05-06T18:16:23.904Z,26.40
2023-05-06T18:19:00.913Z,26.25
2023-05-06T18:21:30.843Z,26.19
2023-05-06T18:24:10.253Z,25.94
2023-05-06T18:26:45.224Z,25.93
2023-05-06T18:29:12.926Z,25.81
2023-05-06T18:31:39.840Z,25.66
2023-05-06T18:34:06.711Z,25.53
2023-05-06T18:36:35.092Z,25.39
2023-05-06T18:39:03.353Z,25.25
2023-05-06T18:41:30.712Z,25.12
2023-05-06T18:43:57.515Z,24.98
2023-05-06T18:46:24.574Z,24.85
2023-05-06T18:48:51.512Z,24.69
2023-05-06T18:51:18.366Z,24.55
2023-05-06T18:53:45.517Z,24.42
2023-05-06T18:56:14.059Z,24.28
2023-05-06T18:58:43.394Z,24.16
2023-05-06T19:01:18.029Z,23.98
2023-05-06T19:03:53.581Z,23.85
2023-05-06T19:06:22.654Z,23.68
2023-05-06T19:08:50.763Z,23.56
2023-05-06T19:11:18.916Z,23.45
2023-05-06T19:13:46.085Z,23.36
2023-05-06T19:16:13.803Z,23.28
2023-05-06T19:18:41.495Z,23.21
2023-05-06T19:21:15.560Z,23.10
2023-05-06T19:23:42.929Z,23.06
2023-05-06T19:26:11.327Z,22.98
2023-05-06T19:28:40.323Z,22.90
2023-05-06T19:31:11.115Z,22.80
2023-05-06T19:33:39.200Z,22.76
2023-05-06T19:36:06.510Z,22.72
2023-05-06T19:38:33.986Z,22.66
2023-05-06T19:41:01.056Z,22.62
2023-05-06T19:43:27.961Z,22.56
2023-05-06T19:45:54.862Z,22.52
2023-05-06T19:48:23.634Z,22.48
2023-05-06T19:50:53.709Z,22.43
2023-05-06T19:53:22.485Z,22.29
2023-05-06T19:55:49.308Z,22.36
2023-05-06T19:58:17.152Z,22.31
2023-05-06T20:00:46.976Z,22.26
2023-05-06T20:03:14.075Z,22.20
2023-05-06T20:05:41.900Z,22.15
2023-05-06T20:08:11.381Z,22.09
2023-05-06T20:10:38.489Z,22.04
2023-05-06T20:13:06.685Z,22.00
2023-05-06T20:15:35.775Z,21.95
2023-05-06T20:18:02.901Z,21.90
2023-05-06T20:20:34.638Z,21.87
2023-05-06T20:23:02.811Z,21.79
2023-05-06T20:25:30.166Z,21.76
2023-05-06T20:27:59.786Z,21.70
2023-05-06T20:30:26.839Z,21.67
2023-05-06T20:32:53.918Z,21.64
2023-05-06T20:35:21.921Z,21.59
2023-05-06T20:37:49.175Z,21.54
2023-05-06T20:40:16.150Z,21.50
2023-05-06T20:42:42.972Z,21.46
2023-05-06T20:45:10.505Z,21.39
2023-05-06T20:47:37.853Z,21.33
2023-05-06T20:50:05.778Z,21.27
2023-05-06T20:52:33.878Z,21.21
2023-05-06T20:55:01.048Z,21.16
2023-05-06T20:57:28.340Z,21.08
2023-05-06T20:59:56.069Z,21.04
2023-05-06T21:02:22.932Z,20.98
2023-05-06T21:04:49.858Z,20.93
2023-05-06T21:07:17.767Z,20.84
2023-05-06T21:09:44.556Z,20.79
2023-05-06T21:12:11.380Z,20.74
2023-05-06T21:14:41.123Z,20.66
2023-05-06T21:17:08.580Z,20.63
2023-05-06T21:19:38.405Z,20.58
2023-05-06T21:22:10.377Z,20.53
2023-05-06T21:24:38.431Z,20.46
2023-05-06T21:27:09.286Z,20.38
2023-05-06T21:29:37.169Z,20.33
2023-05-06T21:32:08.277Z,20.27
2023-05-06T21:34:35.437Z,20.23
2023-05-06T21:37:02.278Z,20.17
2023-05-06T21:39:29.770Z,20.09
2023-05-06T21:41:57.802Z,20.03
2023-05-06T21:44:25.358Z,19.98
2023-05-06T21:46:52.905Z,19.92
2023-05-06T21:49:22.264Z,19.88
2023-05-06T21:51:49.482Z,19.82
2023-05-06T21:54:20.821Z,19.79
2023-05-06T21:56:48.165Z,19.76
2023-05-06T21:59:16.400Z,19.73
2023-05-06T22:01:43.947Z,19.70
2023-05-06T22:04:15.283Z,19.67
2023-05-06T22:06:42.405Z,19.63
2023-05-06T22:09:09.953Z,19.58
2023-05-06T22:11:38.724Z,19.54
2023-05-06T22:14:06.470Z,19.50
2023-05-06T22:16:35.721Z,19.47
2023-05-06T22:19:04.802Z,19.44
2023-05-06T22:21:33.406Z,19.40
2023-05-06T22:24:01.100Z,19.37
2023-05-06T22:26:28.863Z,19.33
2023-05-06T22:28:56.780Z,19.29
2023-05-06T22:31:25.236Z,19.26
2023-05-06T22:33:59.711Z,19.19
2023-05-06T22:36:29.361Z,19.16
2023-05-06T22:38:57.544Z,19.14
2023-05-06T22:41:24.875Z,19.10
2023-05-06T22:43:58.210Z,19.05
2023-05-06T22:46:25.612Z,19.00
2023-05-06T22:48:54.204Z,18.96
2023-05-06T22:51:21.579Z,18.92
2023-05-06T22:53:49.179Z,18.86
2023-05-06T22:56:17.241Z,18.83
2023-05-06T22:58:44.467Z,18.80
2023-05-06T23:01:12.587Z,18.78
2023-05-06T23:03:40.617Z,18.73
2023-05-06T23:06:07.654Z,18.70
2023-05-06T23:08:35.166Z,18.68
2023-05-06T23:11:02.371Z,18.64
2023-05-06T23:13:31.433Z,18.61
2023-05-06T23:15:58.871Z,18.56
2023-05-06T23:18:25.712Z,18.54
2023-05-06T23:20:56.205Z,18.49
2023-05-06T23:23:23.304Z,18.47
2023-05-06T23:25:57.028Z,18.42
2023-05-06T23:28:24.765Z,18.41
2023-05-06T23:30:52.542Z,18.38
2023-05-06T23:33:20.313Z,18.35
2023-05-06T23:35:47.371Z,18.32
2023-05-06T23:38:15.230Z,18.30
2023-05-06T23:40:42.492Z,18.26
2023-05-06T23:43:11.951Z,18.23
2023-05-06T23:45:40.094Z,18.19
2023-05-06T23:48:07.517Z,18.16
2023-05-06T23:50:34.866Z,18.14
2023-05-06T23:53:02.501Z,18.10
2023-05-06T23:55:29.517Z,18.08
2023-05-06T23:57:59.542Z,18.03
